Pedro Bay, AK (99647)

7:08 AM AKDT on August 27, 2016 (GMT -0800)
Slop Bucket Bay Lake Iliamna AK | | Change Station

Elev 43 ft 59.76 °N, 154.82 °W | Updated 2 minutes ago

Clear
Clear
54.3 °F
Feels Like 54.3 °F
N
8.3
Wind Variable Wind from NE
Gusts 8.3 mph

Today
High -- | Low -- °F
--% Chance of Precip.
Yesterday
High -- | Low -- °F
Precip. -- in
Pressure 30.21 in
Visibility 10.0 miles
Clouds Clear
Dew Point 46 °F
Humidity 74%
Rainfall 0.00 in
Snow Depth Not available.
7:02 AM 9:31 PM
Waning Crescent, 24% visible
METAR PAIL 271453Z 28003KT 10SM CLR 12/08 A3021 RMK AO2 SLP229 T01220078 58002
Pressure 30.21 in
Visibility 10.0 miles
Clouds Clear
Dew Point 46 °F
Humidity 74%
Rainfall 0.00 in
Snow Depth Not available.
7:02 AM 9:31 PM
Waning Crescent, 24% visible
METAR PAIL 271453Z 28003KT 10SM CLR 12/08 A3021 RMK AO2 SLP229 T01220078 58002

10-Day Weather Forecast

Almanac

Astronomy

Aug. 27, 2016 Rise Set
Actual Time
Civil Twilight
Nautical Twilight
Astronomical Twilight
Moon
Length of Visible Light
Length of Day
Tomorrow will be .
, % of the Moon is Illuminated

Today's Extremes

State Highs State Lows

Community

WunderPhotos

Upload Photos

1,935,354 photos uploaded!

WunderBlog® & News

Nearby

Air Quality

  Air Quality AQ Index Pollutant
Not available.

Snow Depth

Station Depth Elevation

Earthquake Activity

City Distance Mag. Time & Date
Minimum magnitude displayed is 2.5.

Coastal Water Temperatures

Place Temperature

Stations

Nearby Weather Stations

Station Location Temp. Windchill Dew Point Humidity Wind Precip. Elev Updated Type
                   

Watches & Warnings

There are currently no watches in effect.